sensor_id;sensor_type;location;lat;lon;timestamp;temperature;humidity
3330;DHT22;1677;49.576;10.990;2023-02-05T00:02:05;-1.80;99.90
3330;DHT22;1677;49.576;10.990;2023-02-05T00:04:32;-1.80;99.90
3330;DHT22;1677;49.576;10.990;2023-02-05T00:06:58;-1.30;99.90
3330;DHT22;1677;49.576;10.990;2023-02-05T00:09:24;-1.10;99.90
3330;DHT22;1677;49.576;10.990;2023-02-05T00:11:50;-1.40;99.90
3330;DHT22;1677;49.576;10.990;2023-02-05T00:14:16;-1.40;99.90
3330;DHT22;1677;49.576;10.990;2023-02-05T00:16:41;-1.10;99.90
3330;DHT22;1677;49.576;10.990;2023-02-05T00:19:07;-0.80;99.90
3330;DHT22;1677;49.576;10.990;2023-02-05T00:21:32;-0.70;99.90
3330;DHT22;1677;49.576;10.990;2023-02-05T00:23:58;-0.60;99.90
3330;DHT22;1677;49.576;10.990;2023-02-05T00:26:24;-0.40;99.90
3330;DHT22;1677;49.576;10.990;2023-02-05T00:28:49;-0.40;99.90
3330;DHT22;1677;49.576;10.990;2023-02-05T00:31:18;-0.30;99.90
3330;DHT22;1677;49.576;10.990;2023-02-05T00:33:45;-0.20;99.90
3330;DHT22;1677;49.576;10.990;2023-02-05T00:36:12;-0.30;99.90
3330;DHT22;1677;49.576;10.990;2023-02-05T00:38:38;-0.30;99.90
3330;DHT22;1677;49.576;10.990;2023-02-05T00:41:04;-0.30;99.90
3330;DHT22;1677;49.576;10.990;2023-02-05T00:43:30;-0.40;99.90
3330;DHT22;1677;49.576;10.990;2023-02-05T00:45:56;-0.30;99.90
3330;DHT22;1677;49.576;10.990;2023-02-05T00:48:21;-0.70;99.90
3330;DHT22;1677;49.576;10.990;2023-02-05T00:50:49;-1.30;99.90
3330;DHT22;1677;49.576;10.990;2023-02-05T00:53:15;-1.70;99.90
3330;DHT22;1677;49.576;10.990;2023-02-05T00:55:41;-2.00;99.90
3330;DHT22;1677;49.576;10.990;2023-02-05T00:58:07;-2.10;99.90
3330;DHT22;1677;49.576;10.990;2023-02-05T01:00:32;-2.10;99.90
3330;DHT22;1677;49.576;10.990;2023-02-05T01:02:58;-2.20;99.90
3330;DHT22;1677;49.576;10.990;2023-02-05T01:05:24;-2.30;99.90
3330;DHT22;1677;49.576;10.990;2023-02-05T01:07:50;-2.40;99.90
3330;DHT22;1677;49.576;10.990;2023-02-05T01:10:16;-2.20;99.90
3330;DHT22;1677;49.576;10.990;2023-02-05T01:12:42;-2.20;99.90
3330;DHT22;1677;49.576;10.990;2023-02-05T01:15:08;-2.00;99.90
3330;DHT22;1677;49.576;10.990;2023-02-05T01:17:36;-1.90;99.90
3330;DHT22;1677;49.576;10.990;2023-02-05T01:20:02;-2.20;99.90
3330;DHT22;1677;49.576;10.990;2023-02-05T01:22:27;-2.50;99.90
3330;DHT22;1677;49.576;10.990;2023-02-05T01:24:53;-2.60;99.90
3330;DHT22;1677;49.576;10.990;2023-02-05T01:27:19;-2.60;99.90
3330;DHT22;1677;49.576;10.990;2023-02-05T01:29:44;-2.70;99.90
3330;DHT22;1677;49.576;10.990;2023-02-05T01:32:10;-2.70;99.90
3330;DHT22;1677;49.576;10.990;2023-02-05T01:34:36;-2.30;99.90
3330;DHT22;1677;49.576;10.990;2023-02-05T01:37:01;-2.00;99.90
3330;DHT22;1677;49.576;10.990;2023-02-05T01:39:27;-1.70;99.90
3330;DHT22;1677;49.576;10.990;2023-02-05T01:41:52;-1.40;99.90
3330;DHT22;1677;49.576;10.990;2023-02-05T01:44:20;-1.30;99.90
3330;DHT22;1677;49.576;10.990;2023-02-05T01:46:51;-1.20;99.90
3330;DHT22;1677;49.576;10.990;2023-02-05T01:51:48;-1.80;99.90
3330;DHT22;1677;49.576;10.990;2023-02-05T01:54:15;-1.50;99.90
3330;DHT22;1677;49.576;10.990;2023-02-05T01:56:45;-1.30;99.90
3330;DHT22;1677;49.576;10.990;2023-02-05T01:59:21;-1.30;99.90
3330;DHT22;1677;49.576;10.990;2023-02-05T02:01:49;-1.80;99.90
3330;DHT22;1677;49.576;10.990;2023-02-05T02:04:28;-2.20;99.90
3330;DHT22;1677;49.576;10.990;2023-02-05T02:06:58;-2.30;99.90
3330;DHT22;1677;49.576;10.990;2023-02-05T02:09:24;-1.90;99.90
3330;DHT22;1677;49.576;10.990;2023-02-05T02:11:50;-2.10;99.90
3330;DHT22;1677;49.576;10.990;2023-02-05T02:14:15;-2.40;99.90
3330;DHT22;1677;49.576;10.990;2023-02-05T02:16:42;-2.60;99.90
3330;DHT22;1677;49.576;10.990;2023-02-05T02:19:24;-2.70;99.90
3330;DHT22;1677;49.576;10.990;2023-02-05T02:27:49;-1.50;99.90
3330;DHT22;1677;49.576;10.990;2023-02-05T02:33:21;-2.00;99.90
3330;DHT22;1677;49.576;10.990;2023-02-05T02:38:31;-2.80;99.90
3330;DHT22;1677;49.576;10.990;2023-02-05T02:43:44;-3.20;99.90
3330;DHT22;1677;49.576;10.990;2023-02-05T02:46:18;-3.30;99.90
3330;DHT22;1677;49.576;10.990;2023-02-05T02:48:47;-3.30;99.90
3330;DHT22;1677;49.576;10.990;2023-02-05T02:51:15;-3.40;99.90
3330;DHT22;1677;49.576;10.990;2023-02-05T02:53:46;-3.30;99.90
3330;DHT22;1677;49.576;10.990;2023-02-05T02:56:14;-2.90;99.90
3330;DHT22;1677;49.576;10.990;2023-02-05T02:58:49;-2.40;99.90
3330;DHT22;1677;49.576;10.990;2023-02-05T03:01:19;-2.10;99.90
3330;DHT22;1677;49.576;10.990;2023-02-05T03:03:51;-2.10;99.90
3330;DHT22;1677;49.576;10.990;2023-02-05T03:06:19;-2.30;99.90
3330;DHT22;1677;49.576;10.990;2023-02-05T03:08:53;-2.30;99.90
3330;DHT22;1677;49.576;10.990;2023-02-05T03:11:20;-2.00;99.90
3330;DHT22;1677;49.576;10.990;2023-02-05T03:13:47;-1.80;99.90
3330;DHT22;1677;49.576;10.990;2023-02-05T03:16:13;-1.60;99.90
3330;DHT22;1677;49.576;10.990;2023-02-05T03:18:40;-1.60;99.90
3330;DHT22;1677;49.576;10.990;2023-02-05T03:21:16;-1.60;99.90
3330;DHT22;1677;49.576;10.990;2023-02-05T03:23:43;-1.60;99.90
3330;DHT22;1677;49.576;10.990;2023-02-05T03:26:27;-1.80;99.90
3330;DHT22;1677;49.576;10.990;2023-02-05T03:28:54;-1.80;99.90
3330;DHT22;1677;49.576;10.990;2023-02-05T03:39:37;-1.40;99.90
3330;DHT22;1677;49.576;10.990;2023-02-05T03:43:04;-1.40;99.90
3330;DHT22;1677;49.576;10.990;2023-02-05T03:48:27;-1.40;99.90
3330;DHT22;1677;49.576;10.990;2023-02-05T03:54:33;-1.60;99.90
3330;DHT22;1677;49.576;10.990;2023-02-05T03:57:09;-1.60;99.90
3330;DHT22;1677;49.576;10.990;2023-02-05T03:59:36;-1.50;99.90
3330;DHT22;1677;49.576;10.990;2023-02-05T04:02:02;-1.50;99.90
3330;DHT22;1677;49.576;10.990;2023-02-05T04:04:29;-1.50;99.90
3330;DHT22;1677;49.576;10.990;2023-02-05T04:06:55;-1.50;99.90
3330;DHT22;1677;49.576;10.990;2023-02-05T04:09:21;-1.40;99.90
3330;DHT22;1677;49.576;10.990;2023-02-05T04:11:47;-1.50;99.90
3330;DHT22;1677;49.576;10.990;2023-02-05T04:14:13;-1.60;99.90
3330;DHT22;1677;49.576;10.990;2023-02-05T04:16:39;-1.70;99.90
3330;DHT22;1677;49.576;10.990;2023-02-05T04:19:04;-2.00;99.90
3330;DHT22;1677;49.576;10.990;2023-02-05T04:21:30;-2.30;99.90
3330;DHT22;1677;49.576;10.990;2023-02-05T04:23:56;-2.70;99.90
3330;DHT22;1677;49.576;10.990;2023-02-05T04:26:21;-2.90;99.90
3330;DHT22;1677;49.576;10.990;2023-02-05T04:28:47;-3.00;99.90
3330;DHT22;1677;49.576;10.990;2023-02-05T04:31:12;-2.70;99.90
3330;DHT22;1677;49.576;10.990;2023-02-05T04:33:39;-2.50;99.90
3330;DHT22;1677;49.576;10.990;2023-02-05T04:36:05;-2.30;99.90
3330;DHT22;1677;49.576;10.990;2023-02-05T04:38:31;-2.20;99.90
3330;DHT22;1677;49.576;10.990;2023-02-05T04:40:57;-2.20;99.90
3330;DHT22;1677;49.576;10.990;2023-02-05T04:43:23;-2.60;99.90
3330;DHT22;1677;49.576;10.990;2023-02-05T04:45:48;-2.90;99.90
3330;DHT22;1677;49.576;10.990;2023-02-05T04:48:14;-2.90;99.90
3330;DHT22;1677;49.576;10.990;2023-02-05T04:50:40;-2.90;99.90
3330;DHT22;1677;49.576;10.990;2023-02-05T04:53:05;-2.70;99.90
3330;DHT22;1677;49.576;10.990;2023-02-05T04:55:31;-2.60;99.90
3330;DHT22;1677;49.576;10.990;2023-02-05T04:57:57;-2.90;99.90
3330;DHT22;1677;49.576;10.990;2023-02-05T05:00:23;-3.20;99.90
3330;DHT22;1677;49.576;10.990;2023-02-05T05:02:49;-3.30;99.90
3330;DHT22;1677;49.576;10.990;2023-02-05T05:05:15;-3.40;99.90
3330;DHT22;1677;49.576;10.990;2023-02-05T05:07:40;-3.50;99.90
3330;DHT22;1677;49.576;10.990;2023-02-05T05:10:06;-3.50;99.90
3330;DHT22;1677;49.576;10.990;2023-02-05T05:12:34;-3.00;99.90
3330;DHT22;1677;49.576;10.990;2023-02-05T05:14:59;-2.90;99.90
3330;DHT22;1677;49.576;10.990;2023-02-05T05:17:25;-3.10;99.90
3330;DHT22;1677;49.576;10.990;2023-02-05T05:19:50;-3.30;99.90
3330;DHT22;1677;49.576;10.990;2023-02-05T05:22:16;-3.20;99.90
3330;DHT22;1677;49.576;10.990;2023-02-05T05:24:41;-2.80;99.90
3330;DHT22;1677;49.576;10.990;2023-02-05T05:27:07;-2.70;99.90
3330;DHT22;1677;49.576;10.990;2023-02-05T05:29:32;-3.20;99.90
3330;DHT22;1677;49.576;10.990;2023-02-05T05:31:59;-3.60;99.90
3330;DHT22;1677;49.576;10.990;2023-02-05T05:34:25;-3.80;99.90
3330;DHT22;1677;49.576;10.990;2023-02-05T05:36:50;-4.00;99.90
3330;DHT22;1677;49.576;10.990;2023-02-05T05:39:18;-4.00;99.90
3330;DHT22;1677;49.576;10.990;2023-02-05T05:42:02;-3.60;99.90
3330;DHT22;1677;49.576;10.990;2023-02-05T05:44:46;-3.30;99.90
3330;DHT22;1677;49.576;10.990;2023-02-05T05:47:16;-2.80;99.90
3330;DHT22;1677;49.576;10.990;2023-02-05T05:49:42;-2.50;99.90
3330;DHT22;1677;49.576;10.990;2023-02-05T05:52:08;-2.30;99.90
3330;DHT22;1677;49.576;10.990;2023-02-05T05:54:33;-2.40;99.90
3330;DHT22;1677;49.576;10.990;2023-02-05T05:56:59;-3.00;99.90
3330;DHT22;1677;49.576;10.990;2023-02-05T05:59:24;-3.50;99.90
3330;DHT22;1677;49.576;10.990;2023-02-05T06:01:50;-3.70;99.90
3330;DHT22;1677;49.576;10.990;2023-02-05T06:04:16;-3.80;99.90
3330;DHT22;1677;49.576;10.990;2023-02-05T06:06:41;-3.80;99.90
3330;DHT22;1677;49.576;10.990;2023-02-05T06:09:07;-3.90;99.90
3330;DHT22;1677;49.576;10.990;2023-02-05T06:11:32;-4.10;99.90
3330;DHT22;1677;49.576;10.990;2023-02-05T06:13:58;-3.60;99.90
3330;DHT22;1677;49.576;10.990;2023-02-05T06:16:24;-3.10;99.90
3330;DHT22;1677;49.576;10.990;2023-02-05T06:18:49;-3.00;99.90
3330;DHT22;1677;49.576;10.990;2023-02-05T06:21:15;-3.20;99.90
3330;DHT22;1677;49.576;10.990;2023-02-05T06:23:40;-3.00;99.90
3330;DHT22;1677;49.576;10.990;2023-02-05T06:26:06;-2.80;99.90
3330;DHT22;1677;49.576;10.990;2023-02-05T06:28:31;-2.60;99.90
3330;DHT22;1677;49.576;10.990;2023-02-05T06:30:57;-2.50;99.90
3330;DHT22;1677;49.576;10.990;2023-02-05T06:33:22;-2.40;99.90
3330;DHT22;1677;49.576;10.990;2023-02-05T06:35:48;-2.40;99.90
3330;DHT22;1677;49.576;10.990;2023-02-05T06:38:13;-2.30;99.90
3330;DHT22;1677;49.576;10.990;2023-02-05T06:40:39;-2.20;99.90
3330;DHT22;1677;49.576;10.990;2023-02-05T06:43:05;-2.20;99.90
3330;DHT22;1677;49.576;10.990;2023-02-05T06:45:30;-2.60;99.90
3330;DHT22;1677;49.576;10.990;2023-02-05T06:47:56;-3.20;99.90
3330;DHT22;1677;49.576;10.990;2023-02-05T06:50:23;-3.40;99.90
3330;DHT22;1677;49.576;10.990;2023-02-05T06:52:48;-3.50;99.90
3330;DHT22;1677;49.576;10.990;2023-02-05T06:55:15;-3.60;99.90
3330;DHT22;1677;49.576;10.990;2023-02-05T06:57:41;-3.30;99.90
3330;DHT22;1677;49.576;10.990;2023-02-05T07:00:08;-3.30;99.90
3330;DHT22;1677;49.576;10.990;2023-02-05T07:02:33;-3.10;99.90
3330;DHT22;1677;49.576;10.990;2023-02-05T07:04:59;-3.00;99.90
3330;DHT22;1677;49.576;10.990;2023-02-05T07:07:25;-2.50;99.90
3330;DHT22;1677;49.576;10.990;2023-02-05T07:09:50;-2.10;99.90
3330;DHT22;1677;49.576;10.990;2023-02-05T07:12:16;-1.80;99.90
3330;DHT22;1677;49.576;10.990;2023-02-05T07:14:42;-1.70;99.90
3330;DHT22;1677;49.576;10.990;2023-02-05T07:17:08;-1.80;99.90
3330;DHT22;1677;49.576;10.990;2023-02-05T07:19:34;-2.10;99.90
3330;DHT22;1677;49.576;10.990;2023-02-05T07:22:00;-1.80;99.90
3330;DHT22;1677;49.576;10.990;2023-02-05T07:24:26;-1.60;99.90
3330;DHT22;1677;49.576;10.990;2023-02-05T07:26:52;-1.70;99.90
3330;DHT22;1677;49.576;10.990;2023-02-05T07:29:17;-1.80;99.90
3330;DHT22;1677;49.576;10.990;2023-02-05T07:31:43;-1.80;99.90
3330;DHT22;1677;49.576;10.990;2023-02-05T07:34:09;-1.50;99.90
3330;DHT22;1677;49.576;10.990;2023-02-05T07:36:34;-1.30;99.90
3330;DHT22;1677;49.576;10.990;2023-02-05T07:39:00;-1.10;99.90
3330;DHT22;1677;49.576;10.990;2023-02-05T07:41:26;-1.10;99.90
3330;DHT22;1677;49.576;10.990;2023-02-05T07:43:52;-1.30;99.90
3330;DHT22;1677;49.576;10.990;2023-02-05T07:46:20;-1.40;99.90
3330;DHT22;1677;49.576;10.990;2023-02-05T07:48:46;-1.20;99.90
3330;DHT22;1677;49.576;10.990;2023-02-05T07:51:22;-1.20;99.90
3330;DHT22;1677;49.576;10.990;2023-02-05T07:53:48;-0.80;99.90
3330;DHT22;1677;49.576;10.990;2023-02-05T07:56:14;-0.90;99.90
3330;DHT22;1677;49.576;10.990;2023-02-05T07:58:41;-0.60;99.90
3330;DHT22;1677;49.576;10.990;2023-02-05T08:01:07;-0.30;99.90
3330;DHT22;1677;49.576;10.990;2023-02-05T08:03:32;-0.10;99.90
3330;DHT22;1677;49.576;10.990;2023-02-05T08:06:02;0.00;99.90
3330;DHT22;1677;49.576;10.990;2023-02-05T08:08:28;-0.20;99.90
3330;DHT22;1677;49.576;10.990;2023-02-05T08:11:02;-0.30;99.90
3330;DHT22;1677;49.576;10.990;2023-02-05T08:13:28;0.30;99.90
3330;DHT22;1677;49.576;10.990;2023-02-05T08:15:54;0.80;99.90
3330;DHT22;1677;49.576;10.990;2023-02-05T08:18:20;0.70;99.90
3330;DHT22;1677;49.576;10.990;2023-02-05T08:20:45;1.00;99.90
3330;DHT22;1677;49.576;10.990;2023-02-05T08:23:11;1.10;99.90
3330;DHT22;1677;49.576;10.990;2023-02-05T08:25:38;1.30;99.90
3330;DHT22;1677;49.576;10.990;2023-02-05T08:28:04;0.70;99.90
3330;DHT22;1677;49.576;10.990;2023-02-05T08:30:30;0.10;99.90
3330;DHT22;1677;49.576;10.990;2023-02-05T08:32:55;0.20;99.90
3330;DHT22;1677;49.576;10.990;2023-02-05T08:35:21;0.70;99.90
3330;DHT22;1677;49.576;10.990;2023-02-05T08:37:46;1.00;99.90
3330;DHT22;1677;49.576;10.990;2023-02-05T08:40:12;0.20;99.90
3330;DHT22;1677;49.576;10.990;2023-02-05T08:42:38;-0.30;99.90
3330;DHT22;1677;49.576;10.990;2023-02-05T08:45:04;-0.50;99.90
3330;DHT22;1677;49.576;10.990;2023-02-05T08:47:36;-0.40;99.90
3330;DHT22;1677;49.576;10.990;2023-02-05T08:50:03;-0.40;99.90
3330;DHT22;1677;49.576;10.990;2023-02-05T08:52:29;0.00;99.90
3330;DHT22;1677;49.576;10.990;2023-02-05T08:54:55;0.10;99.90
3330;DHT22;1677;49.576;10.990;2023-02-05T08:57:21;-0.10;99.90
3330;DHT22;1677;49.576;10.990;2023-02-05T08:59:46;0.20;99.90
3330;DHT22;1677;49.576;10.990;2023-02-05T09:02:15;-0.10;99.90
3330;DHT22;1677;49.576;10.990;2023-02-05T09:04:41;0.30;99.90
3330;DHT22;1677;49.576;10.990;2023-02-05T09:07:07;0.70;99.90
3330;DHT22;1677;49.576;10.990;2023-02-05T09:09:32;0.80;99.90
3330;DHT22;1677;49.576;10.990;2023-02-05T09:11:59;0.70;99.90
3330;DHT22;1677;49.576;10.990;2023-02-05T09:14:25;0.70;99.90
3330;DHT22;1677;49.576;10.990;2023-02-05T09:16:51;0.70;99.90
3330;DHT22;1677;49.576;10.990;2023-02-05T09:19:16;1.00;99.90
3330;DHT22;1677;49.576;10.990;2023-02-05T09:21:42;1.00;99.90
3330;DHT22;1677;49.576;10.990;2023-02-05T09:24:08;0.70;99.90
3330;DHT22;1677;49.576;10.990;2023-02-05T09:26:33;0.50;99.90
3330;DHT22;1677;49.576;10.990;2023-02-05T09:29:00;0.70;99.90
3330;DHT22;1677;49.576;10.990;2023-02-05T09:31:25;0.70;99.90
3330;DHT22;1677;49.576;10.990;2023-02-05T09:33:51;0.80;99.90
3330;DHT22;1677;49.576;10.990;2023-02-05T09:36:19;0.80;99.90
3330;DHT22;1677;49.576;10.990;2023-02-05T09:38:46;0.60;99.90
3330;DHT22;1677;49.576;10.990;2023-02-05T09:43:53;0.80;99.90
3330;DHT22;1677;49.576;10.990;2023-02-05T09:46:37;0.80;99.90
3330;DHT22;1677;49.576;10.990;2023-02-05T09:49:36;0.50;99.90
3330;DHT22;1677;49.576;10.990;2023-02-05T09:52:21;0.60;99.90
3330;DHT22;1677;49.576;10.990;2023-02-05T09:54:57;0.70;99.90
3330;DHT22;1677;49.576;10.990;2023-02-05T09:57:34;0.70;99.90
3330;DHT22;1677;49.576;10.990;2023-02-05T10:00:00;0.80;99.90
3330;DHT22;1677;49.576;10.990;2023-02-05T10:02:54;0.70;99.90
3330;DHT22;1677;49.576;10.990;2023-02-05T10:05:24;0.90;99.90
3330;DHT22;1677;49.576;10.990;2023-02-05T10:10:39;0.90;99.90
3330;DHT22;1677;49.576;10.990;2023-02-05T10:13:31;1.10;99.90
3330;DHT22;1677;49.576;10.990;2023-02-05T10:24:49;1.40;99.90
3330;DHT22;1677;49.576;10.990;2023-02-05T10:27:18;1.60;99.90
3330;DHT22;1677;49.576;10.990;2023-02-05T10:38:03;2.00;99.90
3330;DHT22;1677;49.576;10.990;2023-02-05T10:40:36;2.00;99.90
3330;DHT22;1677;49.576;10.990;2023-02-05T10:43:17;1.90;99.90
3330;DHT22;1677;49.576;10.990;2023-02-05T10:45:44;1.90;99.90
3330;DHT22;1677;49.576;10.990;2023-02-05T10:51:42;2.00;99.90
3330;DHT22;1677;49.576;10.990;2023-02-05T10:53:48;2.30;99.90
3330;DHT22;1677;49.576;10.990;2023-02-05T10:56:16;2.30;99.90
3330;DHT22;1677;49.576;10.990;2023-02-05T10:58:43;2.10;99.90
3330;DHT22;1677;49.576;10.990;2023-02-05T11:01:13;2.20;99.90
3330;DHT22;1677;49.576;10.990;2023-02-05T11:03:47;2.20;99.90
3330;DHT22;1677;49.576;10.990;2023-02-05T11:06:14;2.20;99.90
3330;DHT22;1677;49.576;10.990;2023-02-05T11:08:41;2.30;99.90
3330;DHT22;1677;49.576;10.990;2023-02-05T11:11:26;2.40;99.90
3330;DHT22;1677;49.576;10.990;2023-02-05T11:13:59;2.50;99.90
3330;DHT22;1677;49.576;10.990;2023-02-05T11:16:43;2.40;99.90
3330;DHT22;1677;49.576;10.990;2023-02-05T11:19:24;2.30;99.90
3330;DHT22;1677;49.576;10.990;2023-02-05T11:22:00;2.10;99.90
3330;DHT22;1677;49.576;10.990;2023-02-05T11:24:36;2.00;99.90
3330;DHT22;1677;49.576;10.990;2023-02-05T11:29:40;2.40;99.90
3330;DHT22;1677;49.576;10.990;2023-02-05T11:32:37;2.20;99.90
3330;DHT22;1677;49.576;10.990;2023-02-05T11:35:18;2.30;99.90
3330;DHT22;1677;49.576;10.990;2023-02-05T11:37:46;2.30;99.90
3330;DHT22;1677;49.576;10.990;2023-02-05T11:40:25;2.50;99.90
3330;DHT22;1677;49.576;10.990;2023-02-05T11:43:04;2.50;99.90
3330;DHT22;1677;49.576;10.990;2023-02-05T11:45:32;2.40;99.90
3330;DHT22;1677;49.576;10.990;2023-02-05T11:48:05;2.50;99.90
3330;DHT22;1677;49.576;10.990;2023-02-05T11:50:45;2.70;99.90
3330;DHT22;1677;49.576;10.990;2023-02-05T11:53:15;2.60;99.90
3330;DHT22;1677;49.576;10.990;2023-02-05T11:55:44;2.70;99.90
3330;DHT22;1677;49.576;10.990;2023-02-05T11:58:27;2.70;99.90
3330;DHT22;1677;49.576;10.990;2023-02-05T12:01:00;2.70;99.90
3330;DHT22;1677;49.576;10.990;2023-02-05T12:03:32;2.60;99.90
3330;DHT22;1677;49.576;10.990;2023-02-05T12:06:14;2.50;99.90
3330;DHT22;1677;49.576;10.990;2023-02-05T12:08:48;2.50;99.90
3330;DHT22;1677;49.576;10.990;2023-02-05T12:14:12;2.50;99.90
3330;DHT22;1677;49.576;10.990;2023-02-05T12:35:45;3.60;99.90
3330;DHT22;1677;49.576;10.990;2023-02-05T12:38:37;3.90;99.90
3330;DHT22;1677;49.576;10.990;2023-02-05T12:41:21;4.20;99.90
3330;DHT22;1677;49.576;10.990;2023-02-05T12:43:55;4.30;99.90
3330;DHT22;1677;49.576;10.990;2023-02-05T12:54:54;4.30;99.90
3330;DHT22;1677;49.576;10.990;2023-02-05T12:57:58;4.30;99.90
3330;DHT22;1677;49.576;10.990;2023-02-05T13:00:22;4.30;99.90
3330;DHT22;1677;49.576;10.990;2023-02-05T13:06:03;4.10;99.90
3330;DHT22;1677;49.576;10.990;2023-02-05T13:08:39;4.00;99.90
3330;DHT22;1677;49.576;10.990;2023-02-05T13:11:11;4.00;99.90
3330;DHT22;1677;49.576;10.990;2023-02-05T13:16:15;3.70;99.90
3330;DHT22;1677;49.576;10.990;2023-02-05T13:18:52;3.70;99.90
3330;DHT22;1677;49.576;10.990;2023-02-05T13:21:19;3.80;99.90
3330;DHT22;1677;49.576;10.990;2023-02-05T13:24:22;3.70;99.90
3330;DHT22;1677;49.576;10.990;2023-02-05T13:27:21;3.60;99.90
3330;DHT22;1677;49.576;10.990;2023-02-05T13:30:14;3.60;99.90
3330;DHT22;1677;49.576;10.990;2023-02-05T13:32:44;3.70;99.90
3330;DHT22;1677;49.576;10.990;2023-02-05T13:35:11;3.60;99.90
3330;DHT22;1677;49.576;10.990;2023-02-05T13:37:59;3.70;99.90
3330;DHT22;1677;49.576;10.990;2023-02-05T13:52:27;3.50;99.90
3330;DHT22;1677;49.576;10.990;2023-02-05T13:58:27;3.60;99.90
3330;DHT22;1677;49.576;10.990;2023-02-05T14:00:58;3.60;99.90
3330;DHT22;1677;49.576;10.990;2023-02-05T14:03:29;3.60;99.90
3330;DHT22;1677;49.576;10.990;2023-02-05T14:06:11;3.60;99.90
3330;DHT22;1677;49.576;10.990;2023-02-05T14:08:38;3.40;99.90
3330;DHT22;1677;49.576;10.990;2023-02-05T14:11:04;3.30;99.90
3330;DHT22;1677;49.576;10.990;2023-02-05T14:13:32;3.30;99.90
3330;DHT22;1677;49.576;10.990;2023-02-05T14:26:50;3.30;99.90
3330;DHT22;1677;49.576;10.990;2023-02-05T14:29:43;3.40;99.90
3330;DHT22;1677;49.576;10.990;2023-02-05T14:32:11;3.30;99.90
3330;DHT22;1677;49.576;10.990;2023-02-05T14:37:03;3.20;99.90
3330;DHT22;1677;49.576;10.990;2023-02-05T14:39:31;3.00;99.90
3330;DHT22;1677;49.576;10.990;2023-02-05T14:42:01;3.00;99.90
3330;DHT22;1677;49.576;10.990;2023-02-05T14:44:36;2.90;99.90
3330;DHT22;1677;49.576;10.990;2023-02-05T14:47:18;2.90;99.90
3330;DHT22;1677;49.576;10.990;2023-02-05T14:49:46;3.00;99.90
3330;DHT22;1677;49.576;10.990;2023-02-05T14:52:36;3.00;99.90
3330;DHT22;1677;49.576;10.990;2023-02-05T15:05:39;2.90;99.90
3330;DHT22;1677;49.576;10.990;2023-02-05T15:11:22;3.20;99.90
3330;DHT22;1677;49.576;10.990;2023-02-05T15:16:44;3.30;99.90
3330;DHT22;1677;49.576;10.990;2023-02-05T15:19:10;3.00;99.90
3330;DHT22;1677;49.576;10.990;2023-02-05T15:21:45;3.20;99.90
3330;DHT22;1677;49.576;10.990;2023-02-05T15:24:18;3.20;99.90
3330;DHT22;1677;49.576;10.990;2023-02-05T15:26:49;3.20;99.90
3330;DHT22;1677;49.576;10.990;2023-02-05T15:29:39;3.00;99.90
3330;DHT22;1677;49.576;10.990;2023-02-05T15:32:35;3.00;99.90
3330;DHT22;1677;49.576;10.990;2023-02-05T15:37:55;2.80;99.90
3330;DHT22;1677;49.576;10.990;2023-02-05T15:43:22;2.60;99.90
3330;DHT22;1677;49.576;10.990;2023-02-05T15:45:51;2.60;99.90
3330;DHT22;1677;49.576;10.990;2023-02-05T15:48:26;2.60;99.90
3330;DHT22;1677;49.576;10.990;2023-02-05T15:50:59;2.50;99.90
3330;DHT22;1677;49.576;10.990;2023-02-05T15:53:43;2.40;99.90
3330;DHT22;1677;49.576;10.990;2023-02-05T15:59:10;2.80;99.90
3330;DHT22;1677;49.576;10.990;2023-02-05T16:01:41;2.70;99.90
3330;DHT22;1677;49.576;10.990;2023-02-05T16:04:30;2.70;99.90
3330;DHT22;1677;49.576;10.990;2023-02-05T16:06:56;3.10;99.90
3330;DHT22;1677;49.576;10.990;2023-02-05T16:09:24;3.00;99.90
3330;DHT22;1677;49.576;10.990;2023-02-05T16:11:50;3.00;99.90
3330;DHT22;1677;49.576;10.990;2023-02-05T16:14:18;2.90;99.90
3330;DHT22;1677;49.576;10.990;2023-02-05T16:17:20;3.10;99.90
3330;DHT22;1677;49.576;10.990;2023-02-05T16:19:52;3.00;99.90
3330;DHT22;1677;49.576;10.990;2023-02-05T16:22:28;2.90;99.90
3330;DHT22;1677;49.576;10.990;2023-02-05T16:24:59;2.90;99.90
3330;DHT22;1677;49.576;10.990;2023-02-05T16:29:58;3.00;99.90
3330;DHT22;1677;49.576;10.990;2023-02-05T16:32:36;3.00;99.90
3330;DHT22;1677;49.576;10.990;2023-02-05T16:35:04;2.70;99.90
3330;DHT22;1677;49.576;10.990;2023-02-05T16:37:31;2.60;99.90
3330;DHT22;1677;49.576;10.990;2023-02-05T16:40:00;2.80;99.90
3330;DHT22;1677;49.576;10.990;2023-02-05T16:42:37;2.60;99.90
3330;DHT22;1677;49.576;10.990;2023-02-05T16:47:44;2.40;99.90
3330;DHT22;1677;49.576;10.990;2023-02-05T16:50:40;2.40;99.90
3330;DHT22;1677;49.576;10.990;2023-02-05T16:55:43;2.40;99.90
3330;DHT22;1677;49.576;10.990;2023-02-05T16:58:16;2.40;99.90
3330;DHT22;1677;49.576;10.990;2023-02-05T17:00:50;2.30;99.90
3330;DHT22;1677;49.576;10.990;2023-02-05T17:03:18;2.10;99.90
3330;DHT22;1677;49.576;10.990;2023-02-05T17:05:44;2.10;99.90
3330;DHT22;1677;49.576;10.990;2023-02-05T17:08:28;2.10;99.90
3330;DHT22;1677;49.576;10.990;2023-02-05T17:10:57;2.10;99.90
3330;DHT22;1677;49.576;10.990;2023-02-05T17:13:41;2.10;99.90
3330;DHT22;1677;49.576;10.990;2023-02-05T17:16:25;2.10;99.90
3330;DHT22;1677;49.576;10.990;2023-02-05T17:19:03;2.10;99.90
3330;DHT22;1677;49.576;10.990;2023-02-05T17:21:31;2.10;99.90
3330;DHT22;1677;49.576;10.990;2023-02-05T17:23:58;2.30;99.90
3330;DHT22;1677;49.576;10.990;2023-02-05T17:26:28;2.20;99.90
3330;DHT22;1677;49.576;10.990;2023-02-05T17:28:58;2.10;99.90
3330;DHT22;1677;49.576;10.990;2023-02-05T17:31:25;2.10;99.90
3330;DHT22;1677;49.576;10.990;2023-02-05T17:33:56;2.30;99.90
3330;DHT22;1677;49.576;10.990;2023-02-05T17:36:23;2.40;99.90
3330;DHT22;1677;49.576;10.990;2023-02-05T17:38:49;2.60;99.90
3330;DHT22;1677;49.576;10.990;2023-02-05T17:41:20;2.70;99.90
3330;DHT22;1677;49.576;10.990;2023-02-05T17:44:05;2.70;99.90
3330;DHT22;1677;49.576;10.990;2023-02-05T17:46:31;2.50;99.90
3330;DHT22;1677;49.576;10.990;2023-02-05T17:48:57;2.40;99.90
3330;DHT22;1677;49.576;10.990;2023-02-05T17:51:24;2.60;99.90
3330;DHT22;1677;49.576;10.990;2023-02-05T17:53:49;2.50;99.90
3330;DHT22;1677;49.576;10.990;2023-02-05T17:56:16;2.40;99.90
3330;DHT22;1677;49.576;10.990;2023-02-05T17:58:44;2.40;99.90
3330;DHT22;1677;49.576;10.990;2023-02-05T18:01:09;2.60;99.90
3330;DHT22;1677;49.576;10.990;2023-02-05T18:03:36;2.50;99.90
3330;DHT22;1677;49.576;10.990;2023-02-05T18:06:02;2.40;99.90
3330;DHT22;1677;49.576;10.990;2023-02-05T18:08:27;2.30;99.90
3330;DHT22;1677;49.576;10.990;2023-02-05T18:10:54;2.30;99.90
3330;DHT22;1677;49.576;10.990;2023-02-05T18:13:20;2.30;99.90
3330;DHT22;1677;49.576;10.990;2023-02-05T18:15:47;2.50;99.90
3330;DHT22;1677;49.576;10.990;2023-02-05T18:18:15;2.70;99.90
3330;DHT22;1677;49.576;10.990;2023-02-05T18:20:41;2.30;99.90
3330;DHT22;1677;49.576;10.990;2023-02-05T18:23:07;2.30;99.90
3330;DHT22;1677;49.576;10.990;2023-02-05T18:25:32;2.30;99.90
3330;DHT22;1677;49.576;10.990;2023-02-05T18:27:58;2.20;99.90
3330;DHT22;1677;49.576;10.990;2023-02-05T18:30:23;2.30;99.90
3330;DHT22;1677;49.576;10.990;2023-02-05T18:32:50;2.30;99.90
3330;DHT22;1677;49.576;10.990;2023-02-05T18:35:15;2.40;99.90
3330;DHT22;1677;49.576;10.990;2023-02-05T18:37:42;2.50;99.90
3330;DHT22;1677;49.576;10.990;2023-02-05T18:40:08;2.40;99.90
3330;DHT22;1677;49.576;10.990;2023-02-05T18:42:33;2.20;99.90
3330;DHT22;1677;49.576;10.990;2023-02-05T18:45:00;2.10;99.90
3330;DHT22;1677;49.576;10.990;2023-02-05T18:47:26;2.00;99.90
3330;DHT22;1677;49.576;10.990;2023-02-05T18:49:51;2.00;99.90